sensor_id;sensor_type;location;lat;lon;timestamp;temperature;humidity
21787;DHT22;11055;50.870;4.316;2022-08-19T00:01:13;21.20;99.90
21787;DHT22;11055;50.870;4.316;2022-08-19T00:03:39;21.20;99.90
21787;DHT22;11055;50.870;4.316;2022-08-19T00:06:04;21.10;99.90
21787;DHT22;11055;50.870;4.316;2022-08-19T00:08:30;21.10;99.90
21787;DHT22;11055;50.870;4.316;2022-08-19T00:10:56;20.90;99.90
21787;DHT22;11055;50.870;4.316;2022-08-19T00:13:21;20.90;99.90
21787;DHT22;11055;50.870;4.316;2022-08-19T00:15:47;20.90;99.90
21787;DHT22;11055;50.870;4.316;2022-08-19T00:18:12;20.90;99.90
21787;DHT22;11055;50.870;4.316;2022-08-19T00:20:38;21.00;99.90
21787;DHT22;11055;50.870;4.316;2022-08-19T00:23:05;21.00;99.90
21787;DHT22;11055;50.870;4.316;2022-08-19T00:25:31;20.90;99.90
21787;DHT22;11055;50.870;4.316;2022-08-19T00:27:58;20.90;99.90
21787;DHT22;11055;50.870;4.316;2022-08-19T00:30:25;20.90;99.90
21787;DHT22;11055;50.870;4.316;2022-08-19T00:32:52;20.80;99.90
21787;DHT22;11055;50.870;4.316;2022-08-19T00:35:20;20.80;99.90
21787;DHT22;11055;50.870;4.316;2022-08-19T00:37:46;20.80;99.90
21787;DHT22;11055;50.870;4.316;2022-08-19T00:40:12;20.80;99.90
21787;DHT22;11055;50.870;4.316;2022-08-19T00:42:38;20.70;99.90
21787;DHT22;11055;50.870;4.316;2022-08-19T00:45:07;20.70;99.90
21787;DHT22;11055;50.870;4.316;2022-08-19T00:47:34;20.70;99.90
21787;DHT22;11055;50.870;4.316;2022-08-19T00:49:59;20.70;99.90
21787;DHT22;11055;50.870;4.316;2022-08-19T00:52:33;20.70;99.90
21787;DHT22;11055;50.870;4.316;2022-08-19T00:54:59;20.70;99.90
21787;DHT22;11055;50.870;4.316;2022-08-19T00:57:28;20.60;99.90
21787;DHT22;11055;50.870;4.316;2022-08-19T00:59:55;20.60;99.90
21787;DHT22;11055;50.870;4.316;2022-08-19T01:02:21;20.60;99.90
21787;DHT22;11055;50.870;4.316;2022-08-19T01:04:47;20.50;99.90
21787;DHT22;11055;50.870;4.316;2022-08-19T01:07:12;20.60;99.90
21787;DHT22;11055;50.870;4.316;2022-08-19T01:09:38;20.50;99.90
21787;DHT22;11055;50.870;4.316;2022-08-19T01:12:03;20.50;99.90
21787;DHT22;11055;50.870;4.316;2022-08-19T01:14:29;20.60;99.90
21787;DHT22;11055;50.870;4.316;2022-08-19T01:16:55;20.60;99.90
21787;DHT22;11055;50.870;4.316;2022-08-19T01:19:33;20.60;99.90
21787;DHT22;11055;50.870;4.316;2022-08-19T01:22:47;20.60;99.90
21787;DHT22;11055;50.870;4.316;2022-08-19T01:24:45;20.60;99.90
21787;DHT22;11055;50.870;4.316;2022-08-19T01:27:12;20.50;99.90
21787;DHT22;11055;50.870;4.316;2022-08-19T01:29:39;20.50;99.90
21787;DHT22;11055;50.870;4.316;2022-08-19T01:32:05;20.50;99.90
21787;DHT22;11055;50.870;4.316;2022-08-19T01:34:31;20.50;99.90
21787;DHT22;11055;50.870;4.316;2022-08-19T01:37:00;20.50;99.90
21787;DHT22;11055;50.870;4.316;2022-08-19T01:39:27;20.60;99.90
21787;DHT22;11055;50.870;4.316;2022-08-19T01:41:53;20.50;99.90
21787;DHT22;11055;50.870;4.316;2022-08-19T01:44:20;20.40;99.90
21787;DHT22;11055;50.870;4.316;2022-08-19T01:46:49;20.50;99.90
21787;DHT22;11055;50.870;4.316;2022-08-19T01:49:15;20.40;99.90
21787;DHT22;11055;50.870;4.316;2022-08-19T01:51:41;20.40;99.90
21787;DHT22;11055;50.870;4.316;2022-08-19T01:54:11;20.30;99.90
21787;DHT22;11055;50.870;4.316;2022-08-19T01:56:37;20.30;99.90
21787;DHT22;11055;50.870;4.316;2022-08-19T01:59:04;20.20;99.90
21787;DHT22;11055;50.870;4.316;2022-08-19T02:01:30;20.20;99.90
21787;DHT22;11055;50.870;4.316;2022-08-19T02:03:59;20.10;99.90
21787;DHT22;11055;50.870;4.316;2022-08-19T02:06:25;20.10;99.90
21787;DHT22;11055;50.870;4.316;2022-08-19T02:08:51;20.00;99.90
21787;DHT22;11055;50.870;4.316;2022-08-19T02:11:36;19.90;99.90
21787;DHT22;11055;50.870;4.316;2022-08-19T02:14:03;19.80;99.90
21787;DHT22;11055;50.870;4.316;2022-08-19T02:16:29;19.70;99.90
21787;DHT22;11055;50.870;4.316;2022-08-19T02:18:56;19.70;99.90
21787;DHT22;11055;50.870;4.316;2022-08-19T02:21:22;19.70;99.90
21787;DHT22;11055;50.870;4.316;2022-08-19T02:23:48;19.70;99.90
21787;DHT22;11055;50.870;4.316;2022-08-19T02:26:14;19.70;99.90
21787;DHT22;11055;50.870;4.316;2022-08-19T02:28:40;19.70;99.90
21787;DHT22;11055;50.870;4.316;2022-08-19T02:31:10;19.70;99.90
21787;DHT22;11055;50.870;4.316;2022-08-19T02:33:35;19.70;99.90
21787;DHT22;11055;50.870;4.316;2022-08-19T02:36:03;19.70;99.90
21787;DHT22;11055;50.870;4.316;2022-08-19T02:38:28;19.80;99.90
21787;DHT22;11055;50.870;4.316;2022-08-19T02:40:59;19.80;99.90
21787;DHT22;11055;50.870;4.316;2022-08-19T02:43:25;19.90;99.90
21787;DHT22;11055;50.870;4.316;2022-08-19T02:45:51;19.90;99.90
21787;DHT22;11055;50.870;4.316;2022-08-19T02:48:21;19.80;99.90
21787;DHT22;11055;50.870;4.316;2022-08-19T02:50:47;19.80;99.90
21787;DHT22;11055;50.870;4.316;2022-08-19T02:53:15;19.80;99.90
21787;DHT22;11055;50.870;4.316;2022-08-19T02:55:47;19.80;99.90
21787;DHT22;11055;50.870;4.316;2022-08-19T02:58:13;19.80;99.90
21787;DHT22;11055;50.870;4.316;2022-08-19T03:00:43;19.90;99.90
21787;DHT22;11055;50.870;4.316;2022-08-19T03:03:09;19.80;99.90
21787;DHT22;11055;50.870;4.316;2022-08-19T03:05:34;19.80;99.90
21787;DHT22;11055;50.870;4.316;2022-08-19T03:08:00;19.70;99.90
21787;DHT22;11055;50.870;4.316;2022-08-19T03:10:25;19.80;99.90
21787;DHT22;11055;50.870;4.316;2022-08-19T03:12:51;19.80;99.90
21787;DHT22;11055;50.870;4.316;2022-08-19T03:15:16;19.80;99.90
21787;DHT22;11055;50.870;4.316;2022-08-19T03:17:42;19.60;99.90
21787;DHT22;11055;50.870;4.316;2022-08-19T03:20:07;19.60;99.90
21787;DHT22;11055;50.870;4.316;2022-08-19T03:22:33;19.50;99.90
21787;DHT22;11055;50.870;4.316;2022-08-19T03:24:58;19.50;99.90
21787;DHT22;11055;50.870;4.316;2022-08-19T03:27:24;19.60;99.90
21787;DHT22;11055;50.870;4.316;2022-08-19T03:29:50;19.70;99.90
21787;DHT22;11055;50.870;4.316;2022-08-19T03:32:16;19.80;99.90
21787;DHT22;11055;50.870;4.316;2022-08-19T03:34:42;20.00;99.90
21787;DHT22;11055;50.870;4.316;2022-08-19T03:37:08;20.00;99.90
21787;DHT22;11055;50.870;4.316;2022-08-19T03:39:35;20.00;99.90
21787;DHT22;11055;50.870;4.316;2022-08-19T03:42:01;20.00;99.90
21787;DHT22;11055;50.870;4.316;2022-08-19T03:44:28;20.00;99.90
21787;DHT22;11055;50.870;4.316;2022-08-19T03:46:54;19.90;99.90
21787;DHT22;11055;50.870;4.316;2022-08-19T03:49:21;19.90;99.90
21787;DHT22;11055;50.870;4.316;2022-08-19T03:51:47;19.80;99.90
21787;DHT22;11055;50.870;4.316;2022-08-19T03:54:14;19.60;99.90
21787;DHT22;11055;50.870;4.316;2022-08-19T03:56:40;19.50;99.90
21787;DHT22;11055;50.870;4.316;2022-08-19T03:59:07;19.40;99.90
21787;DHT22;11055;50.870;4.316;2022-08-19T04:01:34;19.30;99.90
21787;DHT22;11055;50.870;4.316;2022-08-19T04:04:00;19.20;99.90
21787;DHT22;11055;50.870;4.316;2022-08-19T04:06:27;19.30;99.90
21787;DHT22;11055;50.870;4.316;2022-08-19T04:08:54;19.40;99.90
21787;DHT22;11055;50.870;4.316;2022-08-19T04:11:22;19.50;99.90
21787;DHT22;11055;50.870;4.316;2022-08-19T04:13:48;19.60;99.90
21787;DHT22;11055;50.870;4.316;2022-08-19T04:16:14;19.50;99.90
21787;DHT22;11055;50.870;4.316;2022-08-19T04:18:39;19.50;99.90
21787;DHT22;11055;50.870;4.316;2022-08-19T04:21:05;19.60;99.90
21787;DHT22;11055;50.870;4.316;2022-08-19T04:23:31;19.70;99.90
21787;DHT22;11055;50.870;4.316;2022-08-19T04:25:57;19.80;99.90
21787;DHT22;11055;50.870;4.316;2022-08-19T04:28:23;19.80;99.90
21787;DHT22;11055;50.870;4.316;2022-08-19T04:30:49;19.60;99.90
21787;DHT22;11055;50.870;4.316;2022-08-19T04:33:16;19.60;99.90
21787;DHT22;11055;50.870;4.316;2022-08-19T04:35:45;19.60;99.90
21787;DHT22;11055;50.870;4.316;2022-08-19T04:38:12;19.70;99.90
21787;DHT22;11055;50.870;4.316;2022-08-19T04:40:41;19.70;99.90
21787;DHT22;11055;50.870;4.316;2022-08-19T04:43:26;19.70;99.90
21787;DHT22;11055;50.870;4.316;2022-08-19T04:45:51;19.60;99.90
21787;DHT22;11055;50.870;4.316;2022-08-19T04:48:17;19.60;99.90
21787;DHT22;11055;50.870;4.316;2022-08-19T04:50:47;19.70;99.90
21787;DHT22;11055;50.870;4.316;2022-08-19T04:53:13;19.90;99.90
21787;DHT22;11055;50.870;4.316;2022-08-19T04:55:39;19.80;99.90
21787;DHT22;11055;50.870;4.316;2022-08-19T04:58:05;19.90;99.90
21787;DHT22;11055;50.870;4.316;2022-08-19T05:00:31;19.80;99.90
21787;DHT22;11055;50.870;4.316;2022-08-19T05:02:57;19.80;99.90
21787;DHT22;11055;50.870;4.316;2022-08-19T05:05:22;19.80;99.90
21787;DHT22;11055;50.870;4.316;2022-08-19T05:07:48;19.90;99.90
21787;DHT22;11055;50.870;4.316;2022-08-19T05:10:13;19.90;99.90
21787;DHT22;11055;50.870;4.316;2022-08-19T05:12:39;19.70;99.90
21787;DHT22;11055;50.870;4.316;2022-08-19T05:15:05;19.60;99.90
21787;DHT22;11055;50.870;4.316;2022-08-19T05:17:31;19.70;99.90
21787;DHT22;11055;50.870;4.316;2022-08-19T05:19:57;19.80;99.90
21787;DHT22;11055;50.870;4.316;2022-08-19T05:22:42;19.80;99.90
21787;DHT22;11055;50.870;4.316;2022-08-19T05:25:11;19.80;99.90
21787;DHT22;11055;50.870;4.316;2022-08-19T05:27:37;19.80;99.90
21787;DHT22;11055;50.870;4.316;2022-08-19T05:30:03;19.60;99.90
21787;DHT22;11055;50.870;4.316;2022-08-19T05:32:30;19.50;99.90
21787;DHT22;11055;50.870;4.316;2022-08-19T05:34:55;19.50;99.90
21787;DHT22;11055;50.870;4.316;2022-08-19T05:37:21;19.40;99.90
21787;DHT22;11055;50.870;4.316;2022-08-19T05:39:47;19.40;99.90
21787;DHT22;11055;50.870;4.316;2022-08-19T05:42:14;19.50;99.90
21787;DHT22;11055;50.870;4.316;2022-08-19T05:44:40;19.50;99.90
21787;DHT22;11055;50.870;4.316;2022-08-19T05:47:10;19.40;99.90
21787;DHT22;11055;50.870;4.316;2022-08-19T05:49:36;19.40;99.90
21787;DHT22;11055;50.870;4.316;2022-08-19T05:52:05;19.60;99.90
21787;DHT22;11055;50.870;4.316;2022-08-19T05:54:31;19.70;99.90
21787;DHT22;11055;50.870;4.316;2022-08-19T05:56:57;19.80;99.90
21787;DHT22;11055;50.870;4.316;2022-08-19T05:59:23;19.70;99.90
21787;DHT22;11055;50.870;4.316;2022-08-19T06:01:49;19.70;99.90
21787;DHT22;11055;50.870;4.316;2022-08-19T06:04:19;19.60;99.90
21787;DHT22;11055;50.870;4.316;2022-08-19T06:06:48;19.80;99.90
21787;DHT22;11055;50.870;4.316;2022-08-19T06:09:15;19.80;99.90
21787;DHT22;11055;50.870;4.316;2022-08-19T06:14:08;19.80;99.90
21787;DHT22;11055;50.870;4.316;2022-08-19T06:16:35;20.00;99.90
21787;DHT22;11055;50.870;4.316;2022-08-19T06:19:02;20.00;99.90
21787;DHT22;11055;50.870;4.316;2022-08-19T06:21:28;20.00;99.90
21787;DHT22;11055;50.870;4.316;2022-08-19T06:23:54;20.10;99.90
21787;DHT22;11055;50.870;4.316;2022-08-19T06:26:20;20.10;99.90
21787;DHT22;11055;50.870;4.316;2022-08-19T06:28:46;20.20;99.90
21787;DHT22;11055;50.870;4.316;2022-08-19T06:31:13;20.30;99.90
21787;DHT22;11055;50.870;4.316;2022-08-19T06:33:40;20.30;99.90
21787;DHT22;11055;50.870;4.316;2022-08-19T06:36:06;20.40;99.90
21787;DHT22;11055;50.870;4.316;2022-08-19T06:38:32;20.40;99.90
21787;DHT22;11055;50.870;4.316;2022-08-19T06:41:04;20.40;99.90
21787;DHT22;11055;50.870;4.316;2022-08-19T06:43:30;20.40;99.90
21787;DHT22;11055;50.870;4.316;2022-08-19T06:45:55;20.40;99.90
21787;DHT22;11055;50.870;4.316;2022-08-19T06:48:21;20.40;99.90
21787;DHT22;11055;50.870;4.316;2022-08-19T06:50:47;20.30;99.90
21787;DHT22;11055;50.870;4.316;2022-08-19T06:53:13;20.40;99.90
21787;DHT22;11055;50.870;4.316;2022-08-19T06:55:39;20.40;99.90
21787;DHT22;11055;50.870;4.316;2022-08-19T06:58:05;20.20;99.90
21787;DHT22;11055;50.870;4.316;2022-08-19T07:00:31;20.20;99.90
21787;DHT22;11055;50.870;4.316;2022-08-19T07:02:56;20.20;99.90
21787;DHT22;11055;50.870;4.316;2022-08-19T07:05:22;20.00;99.90
21787;DHT22;11055;50.870;4.316;2022-08-19T07:07:47;19.90;99.90
21787;DHT22;11055;50.870;4.316;2022-08-19T07:10:13;20.00;99.90
21787;DHT22;11055;50.870;4.316;2022-08-19T07:12:39;20.10;99.90
21787;DHT22;11055;50.870;4.316;2022-08-19T07:15:06;20.00;99.90
21787;DHT22;11055;50.870;4.316;2022-08-19T07:17:33;20.00;99.90
21787;DHT22;11055;50.870;4.316;2022-08-19T07:20:04;20.20;99.90
21787;DHT22;11055;50.870;4.316;2022-08-19T07:22:30;20.30;99.90
21787;DHT22;11055;50.870;4.316;2022-08-19T07:24:56;20.50;99.90
21787;DHT22;11055;50.870;4.316;2022-08-19T07:27:21;20.50;99.90
21787;DHT22;11055;50.870;4.316;2022-08-19T07:29:47;20.40;99.90
21787;DHT22;11055;50.870;4.316;2022-08-19T07:32:12;20.40;99.90
21787;DHT22;11055;50.870;4.316;2022-08-19T07:34:38;20.50;99.90
21787;DHT22;11055;50.870;4.316;2022-08-19T07:37:04;20.50;99.90
21787;DHT22;11055;50.870;4.316;2022-08-19T07:39:31;20.50;99.90
21787;DHT22;11055;50.870;4.316;2022-08-19T07:41:57;20.50;99.90
21787;DHT22;11055;50.870;4.316;2022-08-19T07:44:23;20.60;99.90
21787;DHT22;11055;50.870;4.316;2022-08-19T07:46:50;20.70;99.90
21787;DHT22;11055;50.870;4.316;2022-08-19T07:49:16;20.80;99.90
21787;DHT22;11055;50.870;4.316;2022-08-19T07:51:46;20.70;99.90
21787;DHT22;11055;50.870;4.316;2022-08-19T07:54:12;20.80;99.90
21787;DHT22;11055;50.870;4.316;2022-08-19T07:56:37;20.80;99.90
21787;DHT22;11055;50.870;4.316;2022-08-19T07:59:03;20.70;99.90
21787;DHT22;11055;50.870;4.316;2022-08-19T08:01:29;20.70;99.90
21787;DHT22;11055;50.870;4.316;2022-08-19T08:03:56;20.70;99.90
21787;DHT22;11055;50.870;4.316;2022-08-19T08:06:40;20.80;99.90
21787;DHT22;11055;50.870;4.316;2022-08-19T08:09:27;20.80;99.90
21787;DHT22;11055;50.870;4.316;2022-08-19T08:14:29;20.90;99.90
21787;DHT22;11055;50.870;4.316;2022-08-19T08:16:55;20.80;99.90
21787;DHT22;11055;50.870;4.316;2022-08-19T08:19:22;20.70;99.90
21787;DHT22;11055;50.870;4.316;2022-08-19T08:21:48;20.70;99.90
21787;DHT22;11055;50.870;4.316;2022-08-19T08:24:14;20.80;99.90
21787;DHT22;11055;50.870;4.316;2022-08-19T08:26:40;20.80;99.90
21787;DHT22;11055;50.870;4.316;2022-08-19T08:29:06;20.80;99.90
21787;DHT22;11055;50.870;4.316;2022-08-19T08:31:39;20.80;99.90
21787;DHT22;11055;50.870;4.316;2022-08-19T08:34:05;20.80;99.90
21787;DHT22;11055;50.870;4.316;2022-08-19T08:36:30;20.90;99.90
21787;DHT22;11055;50.870;4.316;2022-08-19T08:38:58;21.00;99.90
21787;DHT22;11055;50.870;4.316;2022-08-19T08:44:02;21.00;99.90
21787;DHT22;11055;50.870;4.316;2022-08-19T08:46:44;21.10;99.90
21787;DHT22;11055;50.870;4.316;2022-08-19T08:51:41;21.20;99.90
21787;DHT22;11055;50.870;4.316;2022-08-19T08:54:10;21.30;99.90
21787;DHT22;11055;50.870;4.316;2022-08-19T08:56:37;21.30;99.90
21787;DHT22;11055;50.870;4.316;2022-08-19T09:01:29;21.20;99.90
21787;DHT22;11055;50.870;4.316;2022-08-19T09:03:54;21.20;99.90
21787;DHT22;11055;50.870;4.316;2022-08-19T09:06:23;21.30;99.90
21787;DHT22;11055;50.870;4.316;2022-08-19T09:16:53;21.50;99.90
21787;DHT22;11055;50.870;4.316;2022-08-19T09:19:18;21.50;99.90
21787;DHT22;11055;50.870;4.316;2022-08-19T09:21:44;21.50;99.90
21787;DHT22;11055;50.870;4.316;2022-08-19T09:24:10;21.40;99.90
21787;DHT22;11055;50.870;4.316;2022-08-19T09:26:36;21.40;99.90
21787;DHT22;11055;50.870;4.316;2022-08-19T09:29:02;21.30;99.90
21787;DHT22;11055;50.870;4.316;2022-08-19T09:31:31;21.20;99.90
21787;DHT22;11055;50.870;4.316;2022-08-19T09:33:58;21.30;99.90
21787;DHT22;11055;50.870;4.316;2022-08-19T09:36:24;21.30;99.90
21787;DHT22;11055;50.870;4.316;2022-08-19T09:38:51;21.30;99.90
21787;DHT22;11055;50.870;4.316;2022-08-19T09:41:18;21.40;99.90
21787;DHT22;11055;50.870;4.316;2022-08-19T09:43:44;21.40;99.90
21787;DHT22;11055;50.870;4.316;2022-08-19T09:46:11;21.50;99.90
21787;DHT22;11055;50.870;4.316;2022-08-19T09:48:38;21.50;99.90
21787;DHT22;11055;50.870;4.316;2022-08-19T09:51:05;21.70;99.90
21787;DHT22;11055;50.870;4.316;2022-08-19T09:53:31;21.90;99.90
21787;DHT22;11055;50.870;4.316;2022-08-19T09:55:57;22.00;99.90
21787;DHT22;11055;50.870;4.316;2022-08-19T09:58:22;22.00;99.90
21787;DHT22;11055;50.870;4.316;2022-08-19T10:00:56;21.90;99.90
21787;DHT22;11055;50.870;4.316;2022-08-19T10:03:22;21.80;99.90
21787;DHT22;11055;50.870;4.316;2022-08-19T10:05:48;21.60;99.90
21787;DHT22;11055;50.870;4.316;2022-08-19T10:08:14;21.70;99.90
21787;DHT22;11055;50.870;4.316;2022-08-19T10:10:43;21.80;99.90
21787;DHT22;11055;50.870;4.316;2022-08-19T10:13:09;21.90;99.90
21787;DHT22;11055;50.870;4.316;2022-08-19T10:15:35;21.90;99.90
21787;DHT22;11055;50.870;4.316;2022-08-19T10:18:00;21.90;99.90
21787;DHT22;11055;50.870;4.316;2022-08-19T10:20:26;21.80;99.90
21787;DHT22;11055;50.870;4.316;2022-08-19T10:22:52;21.80;99.90
21787;DHT22;11055;50.870;4.316;2022-08-19T10:25:17;21.80;99.90
21787;DHT22;11055;50.870;4.316;2022-08-19T10:27:43;21.90;99.90
21787;DHT22;11055;50.870;4.316;2022-08-19T10:30:09;22.00;99.90
21787;DHT22;11055;50.870;4.316;2022-08-19T10:32:35;22.00;99.90
21787;DHT22;11055;50.870;4.316;2022-08-19T10:35:01;22.10;99.90
21787;DHT22;11055;50.870;4.316;2022-08-19T10:37:26;22.00;99.90
21787;DHT22;11055;50.870;4.316;2022-08-19T10:39:52;22.10;99.90
21787;DHT22;11055;50.870;4.316;2022-08-19T10:42:17;22.30;99.90
21787;DHT22;11055;50.870;4.316;2022-08-19T10:44:43;22.40;99.90
21787;DHT22;11055;50.870;4.316;2022-08-19T10:47:09;22.40;99.90
21787;DHT22;11055;50.870;4.316;2022-08-19T10:49:35;22.50;99.90
21787;DHT22;11055;50.870;4.316;2022-08-19T10:52:20;22.40;99.90
21787;DHT22;11055;50.870;4.316;2022-08-19T10:55:03;22.40;99.90
21787;DHT22;11055;50.870;4.316;2022-08-19T10:57:47;22.20;99.90
21787;DHT22;11055;50.870;4.316;2022-08-19T11:00:13;22.30;99.90
21787;DHT22;11055;50.870;4.316;2022-08-19T11:02:38;22.20;99.90
21787;DHT22;11055;50.870;4.316;2022-08-19T11:05:04;22.30;99.90
21787;DHT22;11055;50.870;4.316;2022-08-19T11:07:32;22.40;99.90
21787;DHT22;11055;50.870;4.316;2022-08-19T11:09:57;22.50;99.90
21787;DHT22;11055;50.870;4.316;2022-08-19T11:12:23;22.70;99.90
21787;DHT22;11055;50.870;4.316;2022-08-19T11:14:49;22.80;99.90
21787;DHT22;11055;50.870;4.316;2022-08-19T11:17:15;22.80;99.90
21787;DHT22;11055;50.870;4.316;2022-08-19T11:19:41;22.70;99.90
21787;DHT22;11055;50.870;4.316;2022-08-19T11:22:08;22.50;99.90
21787;DHT22;11055;50.870;4.316;2022-08-19T11:24:34;22.50;99.90
21787;DHT22;11055;50.870;4.316;2022-08-19T11:27:05;22.40;99.90
21787;DHT22;11055;50.870;4.316;2022-08-19T11:29:31;22.40;99.90
21787;DHT22;11055;50.870;4.316;2022-08-19T11:31:59;22.50;99.90
21787;DHT22;11055;50.870;4.316;2022-08-19T11:34:27;22.50;99.90
21787;DHT22;11055;50.870;4.316;2022-08-19T11:36:53;22.50;99.90
21787;DHT22;11055;50.870;4.316;2022-08-19T11:39:23;22.50;99.90
21787;DHT22;11055;50.870;4.316;2022-08-19T11:41:48;22.70;99.90
21787;DHT22;11055;50.870;4.316;2022-08-19T11:44:14;22.70;99.90
21787;DHT22;11055;50.870;4.316;2022-08-19T11:46:40;22.80;99.90
21787;DHT22;11055;50.870;4.316;2022-08-19T11:49:06;22.90;99.90
21787;DHT22;11055;50.870;4.316;2022-08-19T11:51:34;23.00;99.90
21787;DHT22;11055;50.870;4.316;2022-08-19T11:54:00;23.10;99.90
21787;DHT22;11055;50.870;4.316;2022-08-19T11:56:26;23.20;99.90
21787;DHT22;11055;50.870;4.316;2022-08-19T11:58:53;23.30;99.90
21787;DHT22;11055;50.870;4.316;2022-08-19T12:01:19;23.40;99.90
21787;DHT22;11055;50.870;4.316;2022-08-19T12:03:46;23.50;99.90
21787;DHT22;11055;50.870;4.316;2022-08-19T12:06:13;23.60;99.90
21787;DHT22;11055;50.870;4.316;2022-08-19T12:08:39;23.70;99.90
21787;DHT22;11055;50.870;4.316;2022-08-19T12:11:05;23.70;99.90
21787;DHT22;11055;50.870;4.316;2022-08-19T12:13:33;23.60;99.90
21787;DHT22;11055;50.870;4.316;2022-08-19T12:15:59;23.60;99.90
21787;DHT22;11055;50.870;4.316;2022-08-19T12:18:25;23.70;99.90
21787;DHT22;11055;50.870;4.316;2022-08-19T12:20:50;23.60;99.90
21787;DHT22;11055;50.870;4.316;2022-08-19T12:23:16;23.70;99.90
21787;DHT22;11055;50.870;4.316;2022-08-19T12:25:45;23.70;99.90
21787;DHT22;11055;50.870;4.316;2022-08-19T12:28:20;23.70;99.90
21787;DHT22;11055;50.870;4.316;2022-08-19T12:30:46;23.90;99.90
21787;DHT22;11055;50.870;4.316;2022-08-19T12:33:12;23.90;99.90
21787;DHT22;11055;50.870;4.316;2022-08-19T12:35:39;23.80;99.90
21787;DHT22;11055;50.870;4.316;2022-08-19T12:38:05;23.80;99.90
21787;DHT22;11055;50.870;4.316;2022-08-19T12:40:31;23.90;99.90
21787;DHT22;11055;50.870;4.316;2022-08-19T12:42:57;23.90;99.90
21787;DHT22;11055;50.870;4.316;2022-08-19T12:45:22;24.00;99.90
21787;DHT22;11055;50.870;4.316;2022-08-19T12:47:48;24.00;99.90
21787;DHT22;11055;50.870;4.316;2022-08-19T12:50:14;24.20;99.90
21787;DHT22;11055;50.870;4.316;2022-08-19T12:52:40;24.20;99.90
21787;DHT22;11055;50.870;4.316;2022-08-19T12:55:07;24.30;99.90
21787;DHT22;11055;50.870;4.316;2022-08-19T12:57:33;24.40;99.90
21787;DHT22;11055;50.870;4.316;2022-08-19T13:00:05;24.50;99.90
21787;DHT22;11055;50.870;4.316;2022-08-19T13:02:33;24.80;99.90
21787;DHT22;11055;50.870;4.316;2022-08-19T13:05:00;25.10;99.90
21787;DHT22;11055;50.870;4.316;2022-08-19T13:07:25;25.20;99.90
21787;DHT22;11055;50.870;4.316;2022-08-19T13:09:51;25.10;99.90
21787;DHT22;11055;50.870;4.316;2022-08-19T13:12:17;25.00;99.90
21787;DHT22;11055;50.870;4.316;2022-08-19T13:14:43;24.70;99.90
21787;DHT22;11055;50.870;4.316;2022-08-19T13:17:15;24.60;99.90
21787;DHT22;11055;50.870;4.316;2022-08-19T13:19:41;24.50;99.90
21787;DHT22;11055;50.870;4.316;2022-08-19T13:22:06;24.50;99.90
21787;DHT22;11055;50.870;4.316;2022-08-19T13:24:32;24.50;99.90
21787;DHT22;11055;50.870;4.316;2022-08-19T13:26:58;24.40;99.90
21787;DHT22;11055;50.870;4.316;2022-08-19T13:29:25;24.20;99.90
21787;DHT22;11055;50.870;4.316;2022-08-19T13:32:09;24.10;99.90
21787;DHT22;11055;50.870;4.316;2022-08-19T13:34:53;24.10;99.90
21787;DHT22;11055;50.870;4.316;2022-08-19T13:37:19;24.20;99.90
21787;DHT22;11055;50.870;4.316;2022-08-19T13:40:05;24.50;99.90
21787;DHT22;11055;50.870;4.316;2022-08-19T13:42:30;24.60;99.90
21787;DHT22;11055;50.870;4.316;2022-08-19T13:44:56;24.60;99.90
21787;DHT22;11055;50.870;4.316;2022-08-19T13:47:23;24.50;99.90
21787;DHT22;11055;50.870;4.316;2022-08-19T13:49:49;24.40;99.90
21787;DHT22;11055;50.870;4.316;2022-08-19T13:52:15;24.30;99.90
21787;DHT22;11055;50.870;4.316;2022-08-19T13:54:40;24.30;99.90
21787;DHT22;11055;50.870;4.316;2022-08-19T13:57:06;24.30;99.90
21787;DHT22;11055;50.870;4.316;2022-08-19T13:59:31;24.30;99.90
21787;DHT22;11055;50.870;4.316;2022-08-19T14:01:58;24.20;99.90
21787;DHT22;11055;50.870;4.316;2022-08-19T14:04:24;24.10;99.90
21787;DHT22;11055;50.870;4.316;2022-08-19T14:06:50;23.80;99.90
21787;DHT22;11055;50.870;4.316;2022-08-19T14:09:15;23.70;99.90
21787;DHT22;11055;50.870;4.316;2022-08-19T14:11:41;23.50;99.90
21787;DHT22;11055;50.870;4.316;2022-08-19T14:14:10;23.20;99.90
21787;DHT22;11055;50.870;4.316;2022-08-19T14:16:36;23.10;99.90
21787;DHT22;11055;50.870;4.316;2022-08-19T14:19:01;23.10;99.90
21787;DHT22;11055;50.870;4.316;2022-08-19T14:21:27;22.90;99.90
21787;DHT22;11055;50.870;4.316;2022-08-19T14:23:53;22.90;99.90
21787;DHT22;11055;50.870;4.316;2022-08-19T14:26:19;23.00;99.90
21787;DHT22;11055;50.870;4.316;2022-08-19T14:28:45;23.00;99.90
21787;DHT22;11055;50.870;4.316;2022-08-19T14:31:11;23.00;99.90
21787;DHT22;11055;50.870;4.316;2022-08-19T14:33:38;23.00;99.90
21787;DHT22;11055;50.870;4.316;2022-08-19T14:36:04;23.20;99.90
21787;DHT22;11055;50.870;4.316;2022-08-19T14:38:29;23.20;99.90
21787;DHT22;11055;50.870;4.316;2022-08-19T14:43:42;23.20;99.90
21787;DHT22;11055;50.870;4.316;2022-08-19T14:46:10;23.30;99.90
21787;DHT22;11055;50.870;4.316;2022-08-19T14:48:37;23.40;99.90
21787;DHT22;11055;50.870;4.316;2022-08-19T14:51:04;23.20;99.90
21787;DHT22;11055;50.870;4.316;2022-08-19T14:53:30;23.30;99.90
21787;DHT22;11055;50.870;4.316;2022-08-19T14:55:56;23.50;99.90
21787;DHT22;11055;50.870;4.316;2022-08-19T14:58:21;23.70;99.90
21787;DHT22;11055;50.870;4.316;2022-08-19T15:00:48;23.70;99.90
21787;DHT22;11055;50.870;4.316;2022-08-19T15:03:13;23.70;99.90
21787;DHT22;11055;50.870;4.316;2022-08-19T15:05:39;23.60;99.90
21787;DHT22;11055;50.870;4.316;2022-08-19T15:08:04;23.70;99.90
21787;DHT22;11055;50.870;4.316;2022-08-19T15:10:30;23.70;99.90
21787;DHT22;11055;50.870;4.316;2022-08-19T15:12:56;23.80;99.90
21787;DHT22;11055;50.870;4.316;2022-08-19T15:15:21;23.90;99.90
21787;DHT22;11055;50.870;4.316;2022-08-19T15:17:47;24.10;99.90
21787;DHT22;11055;50.870;4.316;2022-08-19T15:20:15;24.10;99.90
21787;DHT22;11055;50.870;4.316;2022-08-19T15:22:41;24.10;99.90
21787;DHT22;11055;50.870;4.316;2022-08-19T15:25:08;24.10;99.90
21787;DHT22;11055;50.870;4.316;2022-08-19T15:27:34;24.20;99.90
21787;DHT22;11055;50.870;4.316;2022-08-19T15:30:00;24.30;99.90
21787;DHT22;11055;50.870;4.316;2022-08-19T15:32:26;24.40;99.90
21787;DHT22;11055;50.870;4.316;2022-08-19T15:34:53;24.50;99.90
21787;DHT22;11055;50.870;4.316;2022-08-19T15:37:19;24.40;99.90
21787;DHT22;11055;50.870;4.316;2022-08-19T15:39:47;24.30;99.90
21787;DHT22;11055;50.870;4.316;2022-08-19T15:42:12;24.10;99.90
21787;DHT22;11055;50.870;4.316;2022-08-19T15:44:38;23.90;99.90
21787;DHT22;11055;50.870;4.316;2022-08-19T15:47:03;23.80;99.90
21787;DHT22;11055;50.870;4.316;2022-08-19T15:49:29;23.90;99.90
21787;DHT22;11055;50.870;4.316;2022-08-19T15:51:55;23.90;99.90